KCRQ

Mc Clellan-Palomar Airport

Carlsbad, California, USA
METAR KCRQ 162353Z AUTO 24008KT 10SM CLR 17/11 A2968 RMK AO2 SLP051 T01670106 10183 20156 53007
Observed Flight Rules
Dec-16 @ 23:53 UTC (25 minutes ago) Visual Flight Rules
Wind Visibility Clouds
240° at 8 knots 10 miles
  • Clear skies
Temperatures Readings
Current 17°C / 63°F
Dewpoint 11°C / 52°F
Humidity 68%
Altimeter 29.68" Hg
Pressure 1005.1 hPa
Elevation 99
METAR KCRQ 162353Z AUTO 24008KT 10SM CLR 17/11 A2968 RMK AO2 SLP051 T01670106 10183 20156 53007
Observed Flight Rules
Dec-16 @ 23:53 UTC
(25 minutes ago)
VFR
Wind Visibility
240° at 8 knots 10 miles
Clouds
  • Clear skies
Temperature Dewpoint
17°C / 63°F 11°C / 52°F
Humidity Altimeter Pressure
68% 29.68" Hg 1005.1 hPa